createdAt,value
2019-02-16T00:00:11.587Z,44.88
2019-02-16T00:05:15.082Z,44.87
2019-02-16T00:10:18.579Z,44.91
2019-02-16T00:15:22.065Z,44.94
2019-02-16T00:20:25.561Z,45.18
2019-02-16T00:25:29.050Z,45.18
2019-02-16T00:30:32.541Z,44.94
2019-02-16T00:35:36.041Z,44.94
2019-02-16T00:40:39.526Z,44.98
2019-02-16T00:45:43.014Z,44.96
2019-02-16T00:50:46.518Z,44.99
2019-02-16T00:55:49.994Z,45.01
2019-02-16T01:00:53.527Z,45.02
2019-02-16T01:05:57.020Z,45.03
2019-02-16T01:11:00.523Z,45.06
2019-02-16T01:16:04.013Z,45.05
2019-02-16T01:21:07.517Z,45.08
2019-02-16T01:26:10.989Z,45.08
2019-02-16T01:31:14.477Z,45.08
2019-02-16T01:36:17.965Z,45.09
2019-02-16T01:41:21.457Z,45.10
2019-02-16T01:46:24.946Z,45.10
2019-02-16T01:51:31.985Z,45.10
2019-02-16T01:56:33.821Z,45.13
2019-02-16T02:01:37.317Z,45.13
2019-02-16T02:06:40.798Z,45.17
2019-02-16T02:11:44.310Z,45.16
2019-02-16T02:16:48.045Z,45.18
2019-02-16T02:21:51.566Z,45.18
2019-02-16T02:26:55.059Z,45.19
2019-02-16T02:31:58.559Z,45.17
2019-02-16T02:37:02.063Z,45.18
2019-02-16T02:42:05.558Z,45.17
2019-02-16T02:47:09.047Z,45.17
2019-02-16T02:52:12.549Z,45.18
2019-02-16T02:57:16.041Z,45.17
2019-02-16T03:02:19.530Z,45.18
2019-02-16T03:07:23.032Z,45.17
2019-02-16T03:12:26.514Z,45.19
2019-02-16T03:17:30.002Z,45.18
2019-02-16T03:22:56.321Z,45.18
2019-02-16T03:28:28.574Z,45.18
2019-02-16T03:33:37.909Z,45.18
2019-02-16T03:38:47.075Z,45.20
2019-02-16T03:43:50.559Z,45.21
2019-02-16T03:48:54.050Z,45.20
2019-02-16T03:53:57.542Z,45.22
2019-02-16T03:59:01.039Z,45.21
2019-02-16T04:04:04.672Z,45.20
2019-02-16T04:09:08.151Z,45.22
2019-02-16T04:14:11.631Z,45.20
2019-02-16T04:19:15.109Z,45.21
2019-02-16T04:24:18.588Z,45.22
2019-02-16T04:29:22.078Z,45.20
2019-02-16T04:34:25.558Z,45.22
2019-02-16T04:39:29.043Z,45.20
2019-02-16T04:44:32.507Z,45.21
2019-02-16T04:49:35.984Z,45.22
2019-02-16T04:54:40.401Z,45.21
2019-02-16T04:59:44.125Z,45.22
2019-02-16T05:04:47.592Z,45.24
2019-02-16T05:09:51.065Z,45.21
2019-02-16T05:14:54.542Z,45.24
2019-02-16T05:19:58.014Z,45.25
2019-02-16T05:25:01.501Z,45.25
2019-02-16T05:30:07.902Z,45.24
2019-02-16T05:35:11.383Z,45.25
2019-02-16T05:40:14.864Z,45.21
2019-02-16T05:45:18.340Z,45.22
2019-02-16T05:50:21.814Z,45.24
2019-02-16T05:55:25.301Z,45.21
2019-02-16T06:00:30.411Z,45.22
2019-02-16T06:05:33.885Z,45.22
2019-02-16T06:10:37.363Z,45.23
2019-02-16T06:15:40.895Z,45.25
2019-02-16T06:20:44.318Z,45.26
2019-02-16T06:25:47.806Z,45.24
2019-02-16T06:30:51.275Z,45.24
2019-02-16T06:35:56.393Z,45.24
2019-02-16T06:40:59.873Z,45.24
2019-02-16T06:46:03.354Z,45.26
2019-02-16T06:51:06.834Z,45.24
2019-02-16T06:56:11.956Z,45.23
2019-02-16T07:01:16.100Z,45.23
2019-02-16T07:06:19.579Z,45.24
2019-02-16T07:11:23.056Z,45.25
2019-02-16T07:16:33.624Z,45.27
2019-02-16T07:21:37.099Z,45.26
2019-02-16T07:26:40.573Z,45.17
2019-02-16T07:31:44.059Z,45.17
2019-02-16T07:36:47.534Z,45.13
2019-02-16T07:41:51.010Z,45.04
2019-02-16T07:47:01.899Z,44.95
2019-02-16T07:52:09.699Z,44.89
2019-02-16T07:57:20.764Z,44.88
2019-02-16T08:02:40.869Z,43.62
2019-02-16T08:07:45.982Z,29.93
2019-02-16T08:13:03.151Z,30.16
2019-02-16T08:18:11.218Z,33.64
2019-02-16T08:23:22.297Z,35.86
2019-02-16T08:28:27.410Z,36.84
2019-02-16T08:33:32.522Z,37.49
2019-02-16T08:38:37.638Z,38.19
2019-02-16T08:43:54.904Z,38.68
2019-02-16T08:49:00.023Z,39.11
2019-02-16T08:54:07.917Z,39.48
2019-02-16T08:59:13.030Z,39.77
2019-02-16T09:04:27.159Z,39.94
2019-02-16T09:09:34.682Z,40.09
2019-02-16T09:14:55.929Z,40.32
2019-02-16T09:20:16.324Z,40.80
2019-02-16T09:25:27.177Z,41.27
2019-02-16T09:30:37.838Z,41.55
2019-02-16T09:35:45.884Z,41.84
2019-02-16T09:40:53.660Z,41.92
2019-02-16T09:46:04.200Z,42.13
2019-02-16T09:51:15.098Z,41.55
2019-02-16T09:56:22.890Z,41.16
2019-02-16T10:01:34.226Z,41.30
2019-02-16T10:06:55.763Z,41.30
2019-02-16T10:12:09.536Z,41.09
2019-02-16T10:17:23.800Z,41.16
2019-02-16T10:22:34.898Z,41.56
2019-02-16T10:27:40.017Z,41.91
2019-02-16T10:32:48.039Z,42.14
2019-02-16T10:37:53.158Z,42.33
2019-02-16T10:43:00.677Z,42.50
2019-02-16T10:48:05.790Z,42.68
2019-02-16T10:53:10.921Z,42.81
2019-02-16T10:58:16.030Z,43.00
2019-02-16T11:03:37.098Z,43.20
2019-02-16T11:08:54.432Z,43.08
2019-02-16T11:14:15.978Z,43.23
2019-02-16T11:19:24.299Z,43.75
2019-02-16T11:24:36.250Z,44.24
2019-02-16T11:29:44.187Z,44.56
2019-02-16T11:34:49.306Z,44.46
2019-02-16T11:39:54.420Z,44.63
2019-02-16T11:45:17.608Z,44.65
2019-02-16T11:50:25.523Z,44.52
2019-02-16T11:55:45.685Z,44.34
2019-02-16T12:01:05.855Z,44.20
2019-02-16T12:06:16.608Z,44.10
2019-02-16T12:11:21.741Z,43.92
2019-02-16T12:16:26.878Z,43.85
2019-02-16T12:21:37.894Z,43.73
2019-02-16T12:26:43.011Z,43.64
2019-02-16T12:31:51.134Z,43.34
2019-02-16T12:37:02.405Z,43.00
2019-02-16T12:42:07.545Z,42.81
2019-02-16T12:47:15.643Z,42.51
2019-02-16T12:52:23.615Z,42.24
2019-02-16T12:57:31.467Z,42.08
2019-02-16T13:02:39.320Z,41.99
2019-02-16T13:07:53.198Z,42.08
2019-02-16T13:12:58.360Z,40.09
2019-02-16T13:18:06.138Z,35.98
2019-02-16T13:23:17.034Z,35.12
2019-02-16T13:28:22.205Z,30.85
2019-02-16T13:33:36.577Z,29.37
2019-02-16T13:38:53.107Z,28.23
2019-02-16T13:43:58.217Z,27.09
2019-02-16T13:49:03.333Z,29.93
2019-02-16T13:54:11.401Z,31.71
2019-02-16T13:59:22.383Z,32.82
2019-02-16T14:04:36.532Z,33.75
2019-02-16T14:09:41.662Z,33.91
2019-02-16T14:14:48.335Z,34.34
2019-02-16T14:19:51.816Z,34.61
2019-02-16T14:24:56.941Z,34.97
2019-02-16T14:30:00.439Z,35.40
2019-02-16T14:35:04.490Z,35.82
2019-02-16T14:40:08.446Z,36.21
2019-02-16T14:45:14.246Z,36.58
2019-02-16T14:50:17.745Z,36.89
2019-02-16T14:55:21.227Z,37.18
2019-02-16T15:00:24.719Z,37.53
2019-02-16T15:05:28.230Z,37.77
2019-02-16T15:10:31.706Z,38.03
2019-02-16T15:15:35.186Z,38.25
2019-02-16T15:20:38.660Z,38.44
2019-02-16T15:25:42.133Z,38.64
2019-02-16T15:30:45.609Z,38.85
2019-02-16T15:35:49.079Z,39.02
2019-02-16T15:40:52.555Z,39.27
2019-02-16T15:45:56.049Z,39.41
2019-02-16T15:50:59.523Z,39.50
2019-02-16T15:56:10.095Z,39.67
2019-02-16T16:01:08.243Z,39.99
2019-02-16T16:06:11.773Z,40.22
2019-02-16T16:11:33.267Z,40.36
2019-02-16T16:16:39.141Z,40.29
2019-02-16T16:21:44.253Z,40.24
2019-02-16T16:26:52.333Z,40.24
2019-02-16T16:32:12.514Z,40.23
2019-02-16T16:37:23.860Z,40.23
2019-02-16T16:42:28.990Z,40.38
2019-02-16T16:47:34.123Z,40.49
2019-02-16T16:52:48.247Z,40.49
2019-02-16T16:57:59.388Z,40.68
2019-02-16T17:03:04.527Z,40.72
2019-02-16T17:08:18.613Z,40.80
2019-02-16T17:13:40.124Z,40.91
2019-02-16T17:18:45.234Z,41.05
2019-02-16T17:23:55.814Z,41.12
2019-02-16T17:29:03.613Z,41.26
2019-02-16T17:34:25.266Z,43.63
2019-02-16T17:39:32.803Z,44.26
2019-02-16T17:44:44.003Z,44.82
2019-02-16T17:50:07.479Z,44.54
2019-02-16T17:55:12.613Z,44.36
2019-02-16T18:00:23.540Z,43.77
2019-02-16T18:05:44.708Z,43.26
2019-02-16T18:10:49.829Z,42.96
2019-02-16T18:15:57.631Z,42.75
2019-02-16T18:21:11.354Z,42.70
2019-02-16T18:26:16.481Z,42.56
2019-02-16T18:31:37.833Z,42.51
2019-02-16T18:36:45.911Z,42.41
2019-02-16T18:42:07.202Z,42.37
2019-02-16T18:47:15.271Z,42.37
2019-02-16T18:52:26.131Z,42.37
2019-02-16T18:57:40.273Z,42.33
2019-02-16T19:02:45.368Z,42.28
2019-02-16T19:07:56.166Z,42.26
2019-02-16T19:13:16.085Z,42.22
2019-02-16T19:18:26.930Z,42.13
2019-02-16T19:23:50.482Z,42.09
2019-02-16T19:28:58.450Z,42.12
2019-02-16T19:34:03.573Z,42.13
2019-02-16T19:39:08.753Z,42.11
2019-02-16T19:44:16.862Z,42.01
2019-02-16T19:49:34.235Z,42.05
2019-02-16T19:54:48.085Z,42.01
2019-02-16T19:59:58.950Z,41.96
2019-02-16T20:05:06.770Z,41.90
2019-02-16T20:10:14.691Z,41.86
2019-02-16T20:15:22.558Z,41.80
2019-02-16T20:20:30.653Z,41.84
2019-02-16T20:25:51.906Z,41.82
2019-02-16T20:30:57.022Z,41.77
2019-02-16T20:36:18.537Z,41.76
2019-02-16T20:41:23.671Z,41.63
2019-02-16T20:46:28.834Z,41.62
2019-02-16T20:51:48.999Z,41.57
2019-02-16T20:56:56.813Z,41.50
2019-02-16T21:02:20.249Z,41.54
2019-02-16T21:07:34.209Z,41.44
2019-02-16T21:12:41.788Z,41.60
2019-02-16T21:18:03.291Z,41.76
2019-02-16T21:23:13.832Z,41.92
2019-02-16T21:28:21.654Z,42.05
2019-02-16T21:33:26.776Z,42.19
2019-02-16T21:38:40.869Z,42.37
2019-02-16T21:43:45.989Z,42.49
2019-02-16T21:48:57.039Z,42.55
2019-02-16T21:54:17.199Z,42.60
2019-02-16T21:59:28.328Z,42.65
2019-02-16T22:04:36.246Z,42.73
2019-02-16T22:09:53.247Z,42.75
2019-02-16T22:14:56.728Z,42.80
2019-02-16T22:20:00.331Z,42.84
2019-02-16T22:25:03.933Z,42.89
2019-02-16T22:30:10.246Z,42.91
2019-02-16T22:35:13.717Z,42.95
2019-02-16T22:40:17.195Z,42.98
2019-02-16T22:45:20.671Z,43.04
2019-02-16T22:50:24.143Z,43.04
2019-02-16T22:55:27.619Z,43.10
2019-02-16T23:00:38.613Z,43.17
2019-02-16T23:05:42.254Z,43.20
2019-02-16T23:10:45.733Z,43.22
2019-02-16T23:15:49.207Z,43.25
2019-02-16T23:20:52.685Z,43.28
2019-02-16T23:25:56.163Z,43.23
2019-02-16T23:30:59.642Z,43.22
2019-02-16T23:36:03.125Z,43.23
2019-02-16T23:41:06.625Z,43.28
2019-02-16T23:46:10.074Z,43.33
2019-02-16T23:51:13.550Z,43.36
2019-02-16T23:56:17.028Z,43.37
